sensor_id;sensor_type;location;lat;lon;timestamp;P1;durP1;ratioP1;P2;durP2;ratioP2
64684;SDS011;51109;47.414;18.954;2022-07-10T00:00:34;2.10;;;1.20;;
64684;SDS011;51109;47.414;18.954;2022-07-10T00:03:01;1.13;;;0.95;;
64684;SDS011;51109;47.414;18.954;2022-07-10T00:05:28;1.67;;;1.00;;
64684;SDS011;51109;47.414;18.954;2022-07-10T00:07:54;1.75;;;1.00;;
64684;SDS011;51109;47.414;18.954;2022-07-10T00:10:20;1.20;;;1.10;;
64684;SDS011;51109;47.414;18.954;2022-07-10T00:12:47;1.13;;;1.02;;
64684;SDS011;51109;47.414;18.954;2022-07-10T00:15:14;1.73;;;0.80;;
64684;SDS011;51109;47.414;18.954;2022-07-10T00:17:41;0.88;;;0.88;;
64684;SDS011;51109;47.414;18.954;2022-07-10T00:20:08;1.48;;;1.38;;
64684;SDS011;51109;47.414;18.954;2022-07-10T00:22:35;0.85;;;0.85;;
64684;SDS011;51109;47.414;18.954;2022-07-10T00:25:06;1.40;;;1.27;;
64684;SDS011;51109;47.414;18.954;2022-07-10T00:27:34;1.10;;;1.00;;
64684;SDS011;51109;47.414;18.954;2022-07-10T00:30:00;4.20;;;1.27;;
64684;SDS011;51109;47.414;18.954;2022-07-10T00:32:26;3.72;;;1.42;;
64684;SDS011;51109;47.414;18.954;2022-07-10T00:34:52;2.15;;;1.30;;
64684;SDS011;51109;47.414;18.954;2022-07-10T00:37:18;1.15;;;1.10;;
64684;SDS011;51109;47.414;18.954;2022-07-10T00:39:47;1.30;;;1.20;;
64684;SDS011;51109;47.414;18.954;2022-07-10T00:42:13;1.40;;;1.30;;
64684;SDS011;51109;47.414;18.954;2022-07-10T00:44:40;2.58;;;1.00;;
64684;SDS011;51109;47.414;18.954;2022-07-10T00:47:08;1.17;;;1.17;;
64684;SDS011;51109;47.414;18.954;2022-07-10T00:49:35;1.88;;;1.10;;
64684;SDS011;51109;47.414;18.954;2022-07-10T00:52:03;2.70;;;1.00;;
64684;SDS011;51109;47.414;18.954;2022-07-10T00:54:35;1.85;;;1.17;;
64684;SDS011;51109;47.414;18.954;2022-07-10T00:57:03;1.30;;;1.20;;
64684;SDS011;51109;47.414;18.954;2022-07-10T00:59:30;1.10;;;1.10;;
64684;SDS011;51109;47.414;18.954;2022-07-10T01:01:56;2.60;;;1.30;;
64684;SDS011;51109;47.414;18.954;2022-07-10T01:04:24;2.30;;;1.20;;
64684;SDS011;51109;47.414;18.954;2022-07-10T01:06:50;2.35;;;1.20;;
64684;SDS011;51109;47.414;18.954;2022-07-10T01:09:17;1.15;;;1.13;;
64684;SDS011;51109;47.414;18.954;2022-07-10T01:11:43;1.50;;;1.30;;
64684;SDS011;51109;47.414;18.954;2022-07-10T01:14:09;1.58;;;1.40;;
64684;SDS011;51109;47.414;18.954;2022-07-10T01:16:36;1.20;;;1.10;;
64684;SDS011;51109;47.414;18.954;2022-07-10T01:19:02;2.15;;;1.38;;
64684;SDS011;51109;47.414;18.954;2022-07-10T01:21:32;1.63;;;1.25;;
64684;SDS011;51109;47.414;18.954;2022-07-10T01:23:59;1.35;;;1.10;;
64684;SDS011;51109;47.414;18.954;2022-07-10T01:26:28;1.55;;;1.45;;
64684;SDS011;51109;47.414;18.954;2022-07-10T01:28:54;1.70;;;1.60;;
64684;SDS011;51109;47.414;18.954;2022-07-10T01:31:26;1.50;;;1.40;;
64684;SDS011;51109;47.414;18.954;2022-07-10T01:33:54;2.37;;;1.30;;
64684;SDS011;51109;47.414;18.954;2022-07-10T01:36:21;1.58;;;1.45;;
64684;SDS011;51109;47.414;18.954;2022-07-10T01:38:47;1.40;;;1.20;;
64684;SDS011;51109;47.414;18.954;2022-07-10T01:41:16;2.38;;;1.38;;
64684;SDS011;51109;47.414;18.954;2022-07-10T01:43:41;1.10;;;1.10;;
64684;SDS011;51109;47.414;18.954;2022-07-10T01:46:10;1.90;;;1.40;;
64684;SDS011;51109;47.414;18.954;2022-07-10T01:48:37;2.20;;;1.58;;
64684;SDS011;51109;47.414;18.954;2022-07-10T01:51:04;2.50;;;1.50;;
64684;SDS011;51109;47.414;18.954;2022-07-10T01:53:31;1.50;;;1.40;;
64684;SDS011;51109;47.414;18.954;2022-07-10T01:55:58;1.85;;;1.40;;
64684;SDS011;51109;47.414;18.954;2022-07-10T01:58:25;1.60;;;1.50;;
64684;SDS011;51109;47.414;18.954;2022-07-10T02:00:51;1.90;;;1.50;;
64684;SDS011;51109;47.414;18.954;2022-07-10T02:03:17;1.65;;;1.55;;
64684;SDS011;51109;47.414;18.954;2022-07-10T02:06:02;1.70;;;1.50;;
64684;SDS011;51109;47.414;18.954;2022-07-10T02:08:28;1.40;;;1.30;;
64684;SDS011;51109;47.414;18.954;2022-07-10T02:10:54;1.60;;;1.50;;
64684;SDS011;51109;47.414;18.954;2022-07-10T02:13:19;1.95;;;1.77;;
64684;SDS011;51109;47.414;18.954;2022-07-10T02:15:46;1.90;;;1.60;;
64684;SDS011;51109;47.414;18.954;2022-07-10T02:18:13;1.88;;;1.77;;
64684;SDS011;51109;47.414;18.954;2022-07-10T02:20:39;1.83;;;1.58;;
64684;SDS011;51109;47.414;18.954;2022-07-10T02:23:05;1.80;;;1.70;;
64684;SDS011;51109;47.414;18.954;2022-07-10T02:25:33;2.13;;;1.92;;
64684;SDS011;51109;47.414;18.954;2022-07-10T02:27:59;2.15;;;1.95;;
64684;SDS011;51109;47.414;18.954;2022-07-10T02:30:25;2.88;;;1.95;;
64684;SDS011;51109;47.414;18.954;2022-07-10T02:32:51;2.50;;;1.80;;
64684;SDS011;51109;47.414;18.954;2022-07-10T02:35:17;2.10;;;1.90;;
64684;SDS011;51109;47.414;18.954;2022-07-10T02:37:43;3.42;;;2.13;;
64684;SDS011;51109;47.414;18.954;2022-07-10T02:40:09;2.38;;;2.17;;
64684;SDS011;51109;47.414;18.954;2022-07-10T02:42:36;2.20;;;2.10;;
64684;SDS011;51109;47.414;18.954;2022-07-10T02:45:02;2.97;;;2.10;;
64684;SDS011;51109;47.414;18.954;2022-07-10T02:47:29;4.30;;;1.92;;
64684;SDS011;51109;47.414;18.954;2022-07-10T02:49:55;2.40;;;1.90;;
64684;SDS011;51109;47.414;18.954;2022-07-10T02:52:21;2.78;;;2.05;;
64684;SDS011;51109;47.414;18.954;2022-07-10T02:54:46;2.20;;;2.00;;
64684;SDS011;51109;47.414;18.954;2022-07-10T02:57:13;2.08;;;1.98;;
64684;SDS011;51109;47.414;18.954;2022-07-10T02:59:38;2.22;;;2.03;;
64684;SDS011;51109;47.414;18.954;2022-07-10T03:02:05;4.43;;;2.08;;
64684;SDS011;51109;47.414;18.954;2022-07-10T03:04:31;2.80;;;1.92;;
64684;SDS011;51109;47.414;18.954;2022-07-10T03:06:56;3.05;;;1.83;;
64684;SDS011;51109;47.414;18.954;2022-07-10T03:09:22;4.78;;;2.17;;
64684;SDS011;51109;47.414;18.954;2022-07-10T03:11:48;2.03;;;1.92;;
64684;SDS011;51109;47.414;18.954;2022-07-10T03:14:14;2.38;;;2.17;;
64684;SDS011;51109;47.414;18.954;2022-07-10T03:16:40;2.70;;;2.50;;
64684;SDS011;51109;47.414;18.954;2022-07-10T03:19:06;2.50;;;2.20;;
64684;SDS011;51109;47.414;18.954;2022-07-10T03:21:32;2.97;;;2.22;;
64684;SDS011;51109;47.414;18.954;2022-07-10T03:23:57;2.75;;;2.50;;
64684;SDS011;51109;47.414;18.954;2022-07-10T03:26:23;2.20;;;2.00;;
64684;SDS011;51109;47.414;18.954;2022-07-10T03:28:49;2.72;;;2.30;;
64684;SDS011;51109;47.414;18.954;2022-07-10T03:31:15;2.25;;;2.05;;
64684;SDS011;51109;47.414;18.954;2022-07-10T03:33:41;2.60;;;2.40;;
64684;SDS011;51109;47.414;18.954;2022-07-10T03:36:07;2.58;;;2.35;;
64684;SDS011;51109;47.414;18.954;2022-07-10T03:38:33;3.72;;;2.53;;
64684;SDS011;51109;47.414;18.954;2022-07-10T03:40:58;2.60;;;2.40;;
64684;SDS011;51109;47.414;18.954;2022-07-10T03:43:24;2.50;;;2.30;;
64684;SDS011;51109;47.414;18.954;2022-07-10T03:45:50;2.53;;;2.33;;
64684;SDS011;51109;47.414;18.954;2022-07-10T03:48:17;2.60;;;2.40;;
64684;SDS011;51109;47.414;18.954;2022-07-10T03:50:42;3.42;;;2.60;;
64684;SDS011;51109;47.414;18.954;2022-07-10T03:53:08;2.97;;;2.78;;
64684;SDS011;51109;47.414;18.954;2022-07-10T03:55:34;2.70;;;2.50;;
64684;SDS011;51109;47.414;18.954;2022-07-10T03:58:00;3.10;;;2.80;;
64684;SDS011;51109;47.414;18.954;2022-07-10T04:00:30;4.35;;;2.80;;
64684;SDS011;51109;47.414;18.954;2022-07-10T04:03:03;2.90;;;2.63;;
64684;SDS011;51109;47.414;18.954;2022-07-10T04:05:31;2.78;;;2.58;;
64684;SDS011;51109;47.414;18.954;2022-07-10T04:07:58;2.70;;;2.50;;
64684;SDS011;51109;47.414;18.954;2022-07-10T04:10:25;3.35;;;2.53;;
64684;SDS011;51109;47.414;18.954;2022-07-10T04:12:51;6.20;;;2.70;;
64684;SDS011;51109;47.414;18.954;2022-07-10T04:15:18;2.60;;;2.40;;
64684;SDS011;51109;47.414;18.954;2022-07-10T04:17:45;3.47;;;3.17;;
64684;SDS011;51109;47.414;18.954;2022-07-10T04:20:11;3.15;;;2.85;;
64684;SDS011;51109;47.414;18.954;2022-07-10T04:22:39;4.03;;;3.10;;
64684;SDS011;51109;47.414;18.954;2022-07-10T04:25:05;2.90;;;2.30;;
64684;SDS011;51109;47.414;18.954;2022-07-10T04:27:32;5.43;;;2.58;;
64684;SDS011;51109;47.414;18.954;2022-07-10T04:29:57;3.08;;;2.28;;
64684;SDS011;51109;47.414;18.954;2022-07-10T04:32:23;2.90;;;2.60;;
64684;SDS011;51109;47.414;18.954;2022-07-10T04:34:49;5.28;;;2.63;;
64684;SDS011;51109;47.414;18.954;2022-07-10T04:37:15;2.80;;;2.47;;
64684;SDS011;51109;47.414;18.954;2022-07-10T04:39:42;3.50;;;3.20;;
64684;SDS011;51109;47.414;18.954;2022-07-10T04:42:08;3.08;;;2.53;;
64684;SDS011;51109;47.414;18.954;2022-07-10T04:44:34;3.15;;;2.85;;
64684;SDS011;51109;47.414;18.954;2022-07-10T04:47:04;2.83;;;2.53;;
64684;SDS011;51109;47.414;18.954;2022-07-10T04:49:31;2.63;;;2.42;;
64684;SDS011;51109;47.414;18.954;2022-07-10T04:51:58;2.72;;;2.53;;
64684;SDS011;51109;47.414;18.954;2022-07-10T04:54:24;3.15;;;2.58;;
64684;SDS011;51109;47.414;18.954;2022-07-10T04:56:50;2.60;;;2.40;;
64684;SDS011;51109;47.414;18.954;2022-07-10T04:59:16;2.90;;;2.70;;
64684;SDS011;51109;47.414;18.954;2022-07-10T05:01:42;2.92;;;2.65;;
64684;SDS011;51109;47.414;18.954;2022-07-10T05:04:08;3.75;;;2.65;;
64684;SDS011;51109;47.414;18.954;2022-07-10T05:06:34;3.08;;;2.40;;
64684;SDS011;51109;47.414;18.954;2022-07-10T05:09:00;2.65;;;2.40;;
64684;SDS011;51109;47.414;18.954;2022-07-10T05:11:27;2.80;;;2.60;;
64684;SDS011;51109;47.414;18.954;2022-07-10T05:13:53;3.92;;;2.50;;
64684;SDS011;51109;47.414;18.954;2022-07-10T05:16:19;3.47;;;2.45;;
64684;SDS011;51109;47.414;18.954;2022-07-10T05:18:45;3.20;;;2.55;;
64684;SDS011;51109;47.414;18.954;2022-07-10T05:21:11;3.40;;;2.92;;
64684;SDS011;51109;47.414;18.954;2022-07-10T05:23:37;4.25;;;2.90;;
64684;SDS011;51109;47.414;18.954;2022-07-10T05:26:04;7.03;;;2.63;;
64684;SDS011;51109;47.414;18.954;2022-07-10T05:28:30;3.58;;;2.08;;
64684;SDS011;51109;47.414;18.954;2022-07-10T05:30:56;3.45;;;2.35;;
64684;SDS011;51109;47.414;18.954;2022-07-10T05:33:22;4.78;;;2.70;;
64684;SDS011;51109;47.414;18.954;2022-07-10T05:35:48;3.75;;;2.63;;
64684;SDS011;51109;47.414;18.954;2022-07-10T05:38:14;2.95;;;2.60;;
64684;SDS011;51109;47.414;18.954;2022-07-10T05:40:42;2.88;;;2.50;;
64684;SDS011;51109;47.414;18.954;2022-07-10T05:43:08;2.60;;;2.40;;
64684;SDS011;51109;47.414;18.954;2022-07-10T05:45:35;2.47;;;2.25;;
64684;SDS011;51109;47.414;18.954;2022-07-10T05:48:01;2.72;;;2.40;;
64684;SDS011;51109;47.414;18.954;2022-07-10T05:50:27;4.20;;;2.15;;
64684;SDS011;51109;47.414;18.954;2022-07-10T05:52:52;3.38;;;2.20;;
64684;SDS011;51109;47.414;18.954;2022-07-10T05:55:18;2.38;;;2.17;;
64684;SDS011;51109;47.414;18.954;2022-07-10T05:57:44;2.40;;;2.30;;
64684;SDS011;51109;47.414;18.954;2022-07-10T06:00:10;3.17;;;2.38;;
64684;SDS011;51109;47.414;18.954;2022-07-10T06:02:36;2.92;;;2.00;;
64684;SDS011;51109;47.414;18.954;2022-07-10T06:05:02;2.72;;;2.45;;
64684;SDS011;51109;47.414;18.954;2022-07-10T06:07:29;2.40;;;2.20;;
64684;SDS011;51109;47.414;18.954;2022-07-10T06:09:55;4.13;;;2.40;;
64684;SDS011;51109;47.414;18.954;2022-07-10T06:12:21;4.05;;;2.28;;
64684;SDS011;51109;47.414;18.954;2022-07-10T06:14:47;4.28;;;2.45;;
64684;SDS011;51109;47.414;18.954;2022-07-10T06:17:13;3.28;;;2.40;;
64684;SDS011;51109;47.414;18.954;2022-07-10T06:19:38;3.42;;;2.20;;
64684;SDS011;51109;47.414;18.954;2022-07-10T06:22:04;4.95;;;2.30;;
64684;SDS011;51109;47.414;18.954;2022-07-10T06:24:48;2.30;;;2.00;;
64684;SDS011;51109;47.414;18.954;2022-07-10T06:27:14;1.90;;;1.73;;
64684;SDS011;51109;47.414;18.954;2022-07-10T06:29:40;2.83;;;1.92;;
64684;SDS011;51109;47.414;18.954;2022-07-10T06:32:06;5.07;;;2.13;;
64684;SDS011;51109;47.414;18.954;2022-07-10T06:34:32;2.47;;;1.83;;
64684;SDS011;51109;47.414;18.954;2022-07-10T06:36:58;1.90;;;1.80;;
64684;SDS011;51109;47.414;18.954;2022-07-10T06:39:24;3.70;;;1.90;;
64684;SDS011;51109;47.414;18.954;2022-07-10T06:41:50;3.33;;;2.00;;
64684;SDS011;51109;47.414;18.954;2022-07-10T06:44:16;1.90;;;1.80;;
64684;SDS011;51109;47.414;18.954;2022-07-10T06:46:42;2.47;;;2.28;;
64684;SDS011;51109;47.414;18.954;2022-07-10T06:49:28;3.42;;;2.15;;
64684;SDS011;51109;47.414;18.954;2022-07-10T06:51:54;2.42;;;2.20;;
64684;SDS011;51109;47.414;18.954;2022-07-10T06:54:20;2.20;;;1.98;;
64684;SDS011;51109;47.414;18.954;2022-07-10T06:56:46;1.98;;;1.88;;
64684;SDS011;51109;47.414;18.954;2022-07-10T06:59:12;1.98;;;1.83;;
64684;SDS011;51109;47.414;18.954;2022-07-10T07:01:38;2.85;;;1.85;;
64684;SDS011;51109;47.414;18.954;2022-07-10T07:04:04;3.15;;;2.20;;
64684;SDS011;51109;47.414;18.954;2022-07-10T07:06:30;2.17;;;1.80;;
64684;SDS011;51109;47.414;18.954;2022-07-10T07:08:55;3.85;;;2.05;;
64684;SDS011;51109;47.414;18.954;2022-07-10T07:11:21;1.90;;;1.75;;
64684;SDS011;51109;47.414;18.954;2022-07-10T07:13:47;3.47;;;2.00;;
64684;SDS011;51109;47.414;18.954;2022-07-10T07:16:13;1.90;;;1.80;;
64684;SDS011;51109;47.414;18.954;2022-07-10T07:18:43;3.80;;;2.10;;
64684;SDS011;51109;47.414;18.954;2022-07-10T07:21:17;2.50;;;1.98;;
64684;SDS011;51109;47.414;18.954;2022-07-10T07:24:02;1.67;;;1.55;;
64684;SDS011;51109;47.414;18.954;2022-07-10T07:26:29;1.95;;;1.85;;
64684;SDS011;51109;47.414;18.954;2022-07-10T07:28:55;5.25;;;1.70;;
64684;SDS011;51109;47.414;18.954;2022-07-10T07:31:21;2.15;;;1.60;;
64684;SDS011;51109;47.414;18.954;2022-07-10T07:33:47;1.80;;;1.67;;
64684;SDS011;51109;47.414;18.954;2022-07-10T07:36:13;3.45;;;1.58;;
64684;SDS011;51109;47.414;18.954;2022-07-10T07:38:39;1.55;;;1.40;;
64684;SDS011;51109;47.414;18.954;2022-07-10T07:41:04;2.08;;;1.58;;
64684;SDS011;51109;47.414;18.954;2022-07-10T07:43:30;2.05;;;1.55;;
64684;SDS011;51109;47.414;18.954;2022-07-10T07:45:56;2.88;;;1.40;;
64684;SDS011;51109;47.414;18.954;2022-07-10T07:48:22;3.47;;;1.50;;
64684;SDS011;51109;47.414;18.954;2022-07-10T07:50:48;1.27;;;1.20;;
64684;SDS011;51109;47.414;18.954;2022-07-10T07:53:14;1.40;;;1.23;;
64684;SDS011;51109;47.414;18.954;2022-07-10T07:55:39;1.48;;;1.33;;
64684;SDS011;51109;47.414;18.954;2022-07-10T07:58:05;2.67;;;1.50;;
64684;SDS011;51109;47.414;18.954;2022-07-10T08:00:31;1.70;;;1.50;;
64684;SDS011;51109;47.414;18.954;2022-07-10T08:02:58;1.40;;;1.30;;
64684;SDS011;51109;47.414;18.954;2022-07-10T08:05:25;2.42;;;1.55;;
64684;SDS011;51109;47.414;18.954;2022-07-10T08:07:52;1.30;;;1.20;;
64684;SDS011;51109;47.414;18.954;2022-07-10T08:10:21;1.60;;;1.50;;
64684;SDS011;51109;47.414;18.954;2022-07-10T08:12:48;2.65;;;1.40;;
64684;SDS011;51109;47.414;18.954;2022-07-10T08:15:15;1.40;;;1.30;;
64684;SDS011;51109;47.414;18.954;2022-07-10T08:17:42;1.40;;;1.23;;
64684;SDS011;51109;47.414;18.954;2022-07-10T08:20:10;1.50;;;1.30;;
64684;SDS011;51109;47.414;18.954;2022-07-10T08:22:37;1.40;;;1.30;;
64684;SDS011;51109;47.414;18.954;2022-07-10T08:25:04;1.65;;;1.40;;
64684;SDS011;51109;47.414;18.954;2022-07-10T08:27:31;2.33;;;1.55;;
64684;SDS011;51109;47.414;18.954;2022-07-10T08:29:58;2.05;;;1.42;;
64684;SDS011;51109;47.414;18.954;2022-07-10T08:32:24;1.50;;;1.40;;
64684;SDS011;51109;47.414;18.954;2022-07-10T08:34:51;1.65;;;1.55;;
64684;SDS011;51109;47.414;18.954;2022-07-10T08:37:17;1.55;;;1.20;;
64684;SDS011;51109;47.414;18.954;2022-07-10T08:39:44;1.15;;;1.10;;
64684;SDS011;51109;47.414;18.954;2022-07-10T08:42:11;1.83;;;1.67;;
64684;SDS011;51109;47.414;18.954;2022-07-10T08:44:38;1.60;;;1.30;;
64684;SDS011;51109;47.414;18.954;2022-07-10T08:47:04;2.25;;;1.58;;
64684;SDS011;51109;47.414;18.954;2022-07-10T08:49:31;1.23;;;1.23;;
64684;SDS011;51109;47.414;18.954;2022-07-10T08:52:02;3.47;;;1.60;;
64684;SDS011;51109;47.414;18.954;2022-07-10T08:54:29;1.33;;;1.23;;
64684;SDS011;51109;47.414;18.954;2022-07-10T08:56:56;1.35;;;1.10;;
64684;SDS011;51109;47.414;18.954;2022-07-10T08:59:24;2.72;;;1.60;;
64684;SDS011;51109;47.414;18.954;2022-07-10T09:01:50;4.90;;;2.50;;
64684;SDS011;51109;47.414;18.954;2022-07-10T09:04:20;1.48;;;1.35;;
64684;SDS011;51109;47.414;18.954;2022-07-10T09:06:47;4.07;;;1.45;;
64684;SDS011;51109;47.414;18.954;2022-07-10T09:09:13;2.75;;;1.45;;
64684;SDS011;51109;47.414;18.954;2022-07-10T09:11:40;3.38;;;1.35;;
64684;SDS011;51109;47.414;18.954;2022-07-10T09:14:08;2.30;;;1.15;;
64684;SDS011;51109;47.414;18.954;2022-07-10T09:16:37;3.28;;;1.13;;
64684;SDS011;51109;47.414;18.954;2022-07-10T09:21:45;1.25;;;1.15;;
64684;SDS011;51109;47.414;18.954;2022-07-10T09:24:12;1.33;;;1.23;;
64684;SDS011;51109;47.414;18.954;2022-07-10T09:26:39;1.27;;;1.10;;
64684;SDS011;51109;47.414;18.954;2022-07-10T09:31:49;1.30;;;1.20;;
64684;SDS011;51109;47.414;18.954;2022-07-10T09:34:18;1.33;;;0.90;;
64684;SDS011;51109;47.414;18.954;2022-07-10T09:37:21;0.95;;;0.95;;
64684;SDS011;51109;47.414;18.954;2022-07-10T09:39:57;0.98;;;0.98;;
64684;SDS011;51109;47.414;18.954;2022-07-10T09:50:26;1.30;;;1.10;;
64684;SDS011;51109;47.414;18.954;2022-07-10T09:53:00;2.92;;;1.85;;
64684;SDS011;51109;47.414;18.954;2022-07-10T09:55:37;1.20;;;1.08;;
64684;SDS011;51109;47.414;18.954;2022-07-10T09:58:07;2.72;;;1.15;;
64684;SDS011;51109;47.414;18.954;2022-07-10T10:00:35;1.85;;;1.00;;
64684;SDS011;51109;47.414;18.954;2022-07-10T10:03:03;1.00;;;1.00;;
64684;SDS011;51109;47.414;18.954;2022-07-10T10:08:01;3.47;;;1.10;;
64684;SDS011;51109;47.414;18.954;2022-07-10T10:10:50;1.10;;;1.00;;
64684;SDS011;51109;47.414;18.954;2022-07-10T10:13:17;1.33;;;1.23;;
64684;SDS011;51109;47.414;18.954;2022-07-10T10:15:45;1.15;;;1.00;;
64684;SDS011;51109;47.414;18.954;2022-07-10T10:18:12;1.20;;;1.10;;
64684;SDS011;51109;47.414;18.954;2022-07-10T10:20:40;1.25;;;1.00;;
64684;SDS011;51109;47.414;18.954;2022-07-10T10:23:12;0.90;;;0.90;;
64684;SDS011;51109;47.414;18.954;2022-07-10T10:25:55;2.85;;;1.05;;
64684;SDS011;51109;47.414;18.954;2022-07-10T10:28:22;1.40;;;1.00;;
64684;SDS011;51109;47.414;18.954;2022-07-10T10:30:59;0.90;;;0.90;;
64684;SDS011;51109;47.414;18.954;2022-07-10T10:36:01;0.60;;;0.60;;
64684;SDS011;51109;47.414;18.954;2022-07-10T10:49:19;2.35;;;1.00;;
64684;SDS011;51109;47.414;18.954;2022-07-10T10:51:58;1.98;;;0.90;;
64684;SDS011;51109;47.414;18.954;2022-07-10T10:54:28;6.15;;;1.27;;
64684;SDS011;51109;47.414;18.954;2022-07-10T10:57:15;3.75;;;1.73;;
64684;SDS011;51109;47.414;18.954;2022-07-10T11:02:25;0.98;;;0.85;;
64684;SDS011;51109;47.414;18.954;2022-07-10T11:10:35;1.20;;;1.10;;
64684;SDS011;51109;47.414;18.954;2022-07-10T11:15:32;0.88;;;0.88;;
64684;SDS011;51109;47.414;18.954;2022-07-10T11:18:02;1.50;;;1.00;;
64684;SDS011;51109;47.414;18.954;2022-07-10T11:20:40;0.85;;;0.80;;
64684;SDS011;51109;47.414;18.954;2022-07-10T11:26:19;1.48;;;0.80;;
64684;SDS011;51109;47.414;18.954;2022-07-10T11:29:03;6.07;;;1.30;;
64684;SDS011;51109;47.414;18.954;2022-07-10T11:31:30;7.32;;;1.60;;
64684;SDS011;51109;47.414;18.954;2022-07-10T11:34:03;2.92;;;1.13;;
64684;SDS011;51109;47.414;18.954;2022-07-10T11:36:29;5.28;;;1.10;;
64684;SDS011;51109;47.414;18.954;2022-07-10T11:38:59;3.35;;;1.10;;
64684;SDS011;51109;47.414;18.954;2022-07-10T11:41:33;2.67;;;1.05;;
64684;SDS011;51109;47.414;18.954;2022-07-10T11:44:00;1.38;;;1.00;;
64684;SDS011;51109;47.414;18.954;2022-07-10T11:46:31;2.15;;;1.08;;
64684;SDS011;51109;47.414;18.954;2022-07-10T11:48:59;5.57;;;1.00;;
64684;SDS011;51109;47.414;18.954;2022-07-10T11:51:31;3.15;;;0.98;;
64684;SDS011;51109;47.414;18.954;2022-07-10T11:56:29;0.98;;;0.98;;
64684;SDS011;51109;47.414;18.954;2022-07-10T11:59:01;2.53;;;1.20;;
64684;SDS011;51109;47.414;18.954;2022-07-10T12:01:34;2.20;;;1.20;;
64684;SDS011;51109;47.414;18.954;2022-07-10T12:04:10;1.35;;;1.25;;
64684;SDS011;51109;47.414;18.954;2022-07-10T12:06:38;1.40;;;1.27;;
64684;SDS011;51109;47.414;18.954;2022-07-10T12:09:07;2.25;;;1.10;;
64684;SDS011;51109;47.414;18.954;2022-07-10T12:11:43;2.20;;;1.10;;
64684;SDS011;51109;47.414;18.954;2022-07-10T12:14:22;1.17;;;1.08;;
64684;SDS011;51109;47.414;18.954;2022-07-10T12:16:50;3.03;;;1.02;;
64684;SDS011;51109;47.414;18.954;2022-07-10T12:19:21;4.47;;;0.90;;
64684;SDS011;51109;47.414;18.954;2022-07-10T12:21:50;1.63;;;0.70;;
64684;SDS011;51109;47.414;18.954;2022-07-10T12:24:17;1.30;;;1.00;;
64684;SDS011;51109;47.414;18.954;2022-07-10T12:26:47;1.40;;;0.80;;
64684;SDS011;51109;47.414;18.954;2022-07-10T12:29:20;0.93;;;0.88;;
64684;SDS011;51109;47.414;18.954;2022-07-10T12:31:55;2.53;;;0.93;;
64684;SDS011;51109;47.414;18.954;2022-07-10T12:34:35;3.43;;;1.00;;
64684;SDS011;51109;47.414;18.954;2022-07-10T12:37:09;1.10;;;0.95;;
64684;SDS011;51109;47.414;18.954;2022-07-10T12:39:57;1.10;;;1.00;;
64684;SDS011;51109;47.414;18.954;2022-07-10T12:42:32;1.55;;;0.95;;
64684;SDS011;51109;47.414;18.954;2022-07-10T12:45:10;1.33;;;1.08;;
64684;SDS011;51109;47.414;18.954;2022-07-10T12:47:46;3.53;;;1.00;;
64684;SDS011;51109;47.414;18.954;2022-07-10T12:50:14;1.30;;;0.77;;
64684;SDS011;51109;47.414;18.954;2022-07-10T12:52:42;4.00;;;1.42;;
64684;SDS011;51109;47.414;18.954;2022-07-10T13:00:24;2.53;;;0.80;;
64684;SDS011;51109;47.414;18.954;2022-07-10T13:03:05;5.00;;;1.52;;
64684;SDS011;51109;47.414;18.954;2022-07-10T13:05:34;2.75;;;0.95;;
64684;SDS011;51109;47.414;18.954;2022-07-10T13:08:12;0.93;;;0.90;;
64684;SDS011;51109;47.414;18.954;2022-07-10T13:10:53;2.90;;;1.67;;
64684;SDS011;51109;47.414;18.954;2022-07-10T13:13:23;1.67;;;1.00;;
64684;SDS011;51109;47.414;18.954;2022-07-10T13:15:49;2.35;;;1.02;;
64684;SDS011;51109;47.414;18.954;2022-07-10T13:18:21;2.38;;;0.80;;
64684;SDS011;51109;47.414;18.954;2022-07-10T13:20:52;2.67;;;0.80;;
64684;SDS011;51109;47.414;18.954;2022-07-10T13:23:23;2.10;;;1.15;;
64684;SDS011;51109;47.414;18.954;2022-07-10T13:25:50;1.23;;;0.90;;
64684;SDS011;51109;47.414;18.954;2022-07-10T13:28:24;3.42;;;0.85;;
64684;SDS011;51109;47.414;18.954;2022-07-10T13:30:50;4.80;;;0.90;;
64684;SDS011;51109;47.414;18.954;2022-07-10T13:33:16;1.48;;;1.13;;
64684;SDS011;51109;47.414;18.954;2022-07-10T13:35:42;1.98;;;1.00;;
64684;SDS011;51109;47.414;18.954;2022-07-10T13:38:09;2.13;;;1.08;;
64684;SDS011;51109;47.414;18.954;2022-07-10T13:40:35;1.92;;;0.82;;
64684;SDS011;51109;47.414;18.954;2022-07-10T13:43:03;1.55;;;1.05;;
64684;SDS011;51109;47.414;18.954;2022-07-10T13:45:29;1.85;;;1.10;;
64684;SDS011;51109;47.414;18.954;2022-07-10T13:48:02;1.30;;;1.10;;
64684;SDS011;51109;47.414;18.954;2022-07-10T13:50:29;1.58;;;1.00;;
64684;SDS011;51109;47.414;18.954;2022-07-10T13:52:55;4.68;;;0.98;;
64684;SDS011;51109;47.414;18.954;2022-07-10T13:55:20;7.15;;;1.23;;
64684;SDS011;51109;47.414;18.954;2022-07-10T13:57:47;2.45;;;1.20;;
64684;SDS011;51109;47.414;18.954;2022-07-10T14:00:13;2.20;;;1.27;;
64684;SDS011;51109;47.414;18.954;2022-07-10T14:02:39;1.40;;;1.00;;
64684;SDS011;51109;47.414;18.954;2022-07-10T14:05:06;1.30;;;0.95;;
64684;SDS011;51109;47.414;18.954;2022-07-10T14:07:33;1.95;;;1.00;;
64684;SDS011;51109;47.414;18.954;2022-07-10T14:09:59;1.20;;;0.90;;
64684;SDS011;51109;47.414;18.954;2022-07-10T14:12:26;3.85;;;1.10;;
64684;SDS011;51109;47.414;18.954;2022-07-10T14:14:52;3.35;;;1.05;;
64684;SDS011;51109;47.414;18.954;2022-07-10T14:17:18;8.63;;;1.35;;
64684;SDS011;51109;47.414;18.954;2022-07-10T14:19:44;4.03;;;1.30;;
64684;SDS011;51109;47.414;18.954;2022-07-10T14:22:11;3.92;;;0.85;;
64684;SDS011;51109;47.414;18.954;2022-07-10T14:24:37;0.80;;;0.80;;
64684;SDS011;51109;47.414;18.954;2022-07-10T14:27:03;4.47;;;1.20;;
64684;SDS011;51109;47.414;18.954;2022-07-10T14:29:30;1.80;;;0.88;;
64684;SDS011;51109;47.414;18.954;2022-07-10T14:31:55;2.42;;;1.02;;
64684;SDS011;51109;47.414;18.954;2022-07-10T14:34:23;0.85;;;0.80;;
64684;SDS011;51109;47.414;18.954;2022-07-10T14:36:50;4.30;;;1.02;;
64684;SDS011;51109;47.414;18.954;2022-07-10T14:39:16;4.22;;;0.80;;
64684;SDS011;51109;47.414;18.954;2022-07-10T14:41:42;2.60;;;0.90;;
64684;SDS011;51109;47.414;18.954;2022-07-10T14:44:08;2.38;;;1.15;;
64684;SDS011;51109;47.414;18.954;2022-07-10T14:46:34;6.25;;;1.33;;
64684;SDS011;51109;47.414;18.954;2022-07-10T14:49:00;3.22;;;0.90;;
64684;SDS011;51109;47.414;18.954;2022-07-10T14:51:26;1.33;;;0.90;;
64684;SDS011;51109;47.414;18.954;2022-07-10T14:53:52;4.15;;;1.10;;
64684;SDS011;51109;47.414;18.954;2022-07-10T14:56:19;1.52;;;0.70;;
64684;SDS011;51109;47.414;18.954;2022-07-10T14:58:48;3.25;;;0.82;;
64684;SDS011;51109;47.414;18.954;2022-07-10T15:01:15;2.70;;;0.90;;
64684;SDS011;51109;47.414;18.954;2022-07-10T15:03:41;2.13;;;0.88;;
64684;SDS011;51109;47.414;18.954;2022-07-10T15:06:07;3.38;;;0.85;;
64684;SDS011;51109;47.414;18.954;2022-07-10T15:08:34;2.13;;;0.90;;
64684;SDS011;51109;47.414;18.954;2022-07-10T15:11:00;4.72;;;1.13;;
64684;SDS011;51109;47.414;18.954;2022-07-10T15:13:27;3.30;;;1.00;;
64684;SDS011;51109;47.414;18.954;2022-07-10T15:15:53;3.50;;;1.02;;
64684;SDS011;51109;47.414;18.954;2022-07-10T15:18:20;2.67;;;0.90;;
64684;SDS011;51109;47.414;18.954;2022-07-10T15:20:47;5.43;;;1.10;;
64684;SDS011;51109;47.414;18.954;2022-07-10T15:23:13;1.58;;;0.70;;
64684;SDS011;51109;47.414;18.954;2022-07-10T15:25:40;3.65;;;1.00;;
64684;SDS011;51109;47.414;18.954;2022-07-10T15:28:07;4.40;;;0.85;;